sensor_id;sensor_type;location;lat;lon;timestamp;temperature;humidity
6639;DHT22;3355;52.882;8.430;2022-07-10T00:00:13;14.50;99.90
6639;DHT22;3355;52.882;8.430;2022-07-10T00:02:41;14.50;99.90
6639;DHT22;3355;52.882;8.430;2022-07-10T00:05:11;14.50;99.90
6639;DHT22;3355;52.882;8.430;2022-07-10T00:07:37;14.50;99.90
6639;DHT22;3355;52.882;8.430;2022-07-10T00:10:05;14.60;99.90
6639;DHT22;3355;52.882;8.430;2022-07-10T00:12:32;14.50;99.90
6639;DHT22;3355;52.882;8.430;2022-07-10T00:14:58;14.50;99.90
6639;DHT22;3355;52.882;8.430;2022-07-10T00:17:26;14.50;99.90
6639;DHT22;3355;52.882;8.430;2022-07-10T00:19:53;14.50;99.90
6639;DHT22;3355;52.882;8.430;2022-07-10T00:22:21;14.50;99.90
6639;DHT22;3355;52.882;8.430;2022-07-10T00:24:47;14.50;99.90
6639;DHT22;3355;52.882;8.430;2022-07-10T00:27:16;14.50;99.90
6639;DHT22;3355;52.882;8.430;2022-07-10T00:29:42;14.50;99.90
6639;DHT22;3355;52.882;8.430;2022-07-10T00:32:09;14.40;99.90
6639;DHT22;3355;52.882;8.430;2022-07-10T00:34:36;14.40;99.90
6639;DHT22;3355;52.882;8.430;2022-07-10T00:37:03;14.50;99.90
6639;DHT22;3355;52.882;8.430;2022-07-10T00:39:31;14.50;99.90
6639;DHT22;3355;52.882;8.430;2022-07-10T00:42:06;14.50;99.90
6639;DHT22;3355;52.882;8.430;2022-07-10T00:44:34;14.50;99.90
6639;DHT22;3355;52.882;8.430;2022-07-10T00:47:01;14.50;99.90
6639;DHT22;3355;52.882;8.430;2022-07-10T00:49:27;14.50;99.90
6639;DHT22;3355;52.882;8.430;2022-07-10T00:51:55;14.50;99.90
6639;DHT22;3355;52.882;8.430;2022-07-10T00:54:22;14.40;99.90
6639;DHT22;3355;52.882;8.430;2022-07-10T00:56:51;14.40;99.90
6639;DHT22;3355;52.882;8.430;2022-07-10T00:59:18;14.40;99.90
6639;DHT22;3355;52.882;8.430;2022-07-10T01:01:46;14.40;99.90
6639;DHT22;3355;52.882;8.430;2022-07-10T01:04:13;14.40;99.90
6639;DHT22;3355;52.882;8.430;2022-07-10T01:06:40;14.40;99.90
6639;DHT22;3355;52.882;8.430;2022-07-10T01:09:07;14.40;99.90
6639;DHT22;3355;52.882;8.430;2022-07-10T01:11:34;14.40;99.90
6639;DHT22;3355;52.882;8.430;2022-07-10T01:14:04;14.40;99.90
6639;DHT22;3355;52.882;8.430;2022-07-10T01:16:31;14.40;99.90
6639;DHT22;3355;52.882;8.430;2022-07-10T01:18:58;14.40;99.90
6639;DHT22;3355;52.882;8.430;2022-07-10T01:21:29;14.40;99.90
6639;DHT22;3355;52.882;8.430;2022-07-10T01:23:57;14.40;99.90
6639;DHT22;3355;52.882;8.430;2022-07-10T01:26:24;14.40;99.90
6639;DHT22;3355;52.882;8.430;2022-07-10T01:28:52;14.40;99.90
6639;DHT22;3355;52.882;8.430;2022-07-10T01:31:20;14.40;99.90
6639;DHT22;3355;52.882;8.430;2022-07-10T01:33:50;14.30;99.90
6639;DHT22;3355;52.882;8.430;2022-07-10T01:36:17;14.40;99.90
6639;DHT22;3355;52.882;8.430;2022-07-10T01:38:46;14.40;99.90
6639;DHT22;3355;52.882;8.430;2022-07-10T01:41:13;14.40;99.90
6639;DHT22;3355;52.882;8.430;2022-07-10T01:43:40;14.40;99.90
6639;DHT22;3355;52.882;8.430;2022-07-10T01:46:08;14.30;99.90
6639;DHT22;3355;52.882;8.430;2022-07-10T01:48:37;14.20;99.90
6639;DHT22;3355;52.882;8.430;2022-07-10T01:51:04;14.20;99.90
6639;DHT22;3355;52.882;8.430;2022-07-10T01:53:31;14.30;99.90
6639;DHT22;3355;52.882;8.430;2022-07-10T01:56:00;14.20;99.90
6639;DHT22;3355;52.882;8.430;2022-07-10T01:58:29;14.10;99.90
6639;DHT22;3355;52.882;8.430;2022-07-10T02:00:56;14.10;99.90
6639;DHT22;3355;52.882;8.430;2022-07-10T02:03:23;14.10;99.90
6639;DHT22;3355;52.882;8.430;2022-07-10T02:06:07;14.10;99.90
6639;DHT22;3355;52.882;8.430;2022-07-10T02:08:34;14.20;99.90
6639;DHT22;3355;52.882;8.430;2022-07-10T02:11:02;14.10;99.90
6639;DHT22;3355;52.882;8.430;2022-07-10T02:13:29;14.10;99.90
6639;DHT22;3355;52.882;8.430;2022-07-10T02:15:56;14.20;99.90
6639;DHT22;3355;52.882;8.430;2022-07-10T02:18:23;14.20;99.90
6639;DHT22;3355;52.882;8.430;2022-07-10T02:20:51;14.20;99.90
6639;DHT22;3355;52.882;8.430;2022-07-10T02:23:18;14.20;99.90
6639;DHT22;3355;52.882;8.430;2022-07-10T02:25:45;14.20;99.90
6639;DHT22;3355;52.882;8.430;2022-07-10T02:28:13;14.20;99.90
6639;DHT22;3355;52.882;8.430;2022-07-10T02:30:39;14.20;99.90
6639;DHT22;3355;52.882;8.430;2022-07-10T02:33:06;14.20;99.90
6639;DHT22;3355;52.882;8.430;2022-07-10T02:35:33;14.20;99.90
6639;DHT22;3355;52.882;8.430;2022-07-10T02:37:59;14.20;99.90
6639;DHT22;3355;52.882;8.430;2022-07-10T02:40:26;14.20;99.90
6639;DHT22;3355;52.882;8.430;2022-07-10T02:42:53;14.20;99.90
6639;DHT22;3355;52.882;8.430;2022-07-10T02:45:21;14.20;99.90
6639;DHT22;3355;52.882;8.430;2022-07-10T02:47:48;14.20;99.90
6639;DHT22;3355;52.882;8.430;2022-07-10T02:50:15;14.20;99.90
6639;DHT22;3355;52.882;8.430;2022-07-10T02:52:41;14.20;99.90
6639;DHT22;3355;52.882;8.430;2022-07-10T02:55:08;14.20;99.90
6639;DHT22;3355;52.882;8.430;2022-07-10T02:57:35;14.20;99.90
6639;DHT22;3355;52.882;8.430;2022-07-10T03:00:03;14.20;99.90
6639;DHT22;3355;52.882;8.430;2022-07-10T03:02:31;14.20;99.90
6639;DHT22;3355;52.882;8.430;2022-07-10T03:04:58;14.10;99.90
6639;DHT22;3355;52.882;8.430;2022-07-10T03:07:24;14.10;99.90
6639;DHT22;3355;52.882;8.430;2022-07-10T03:09:51;14.10;99.90
6639;DHT22;3355;52.882;8.430;2022-07-10T03:12:19;14.00;99.90
6639;DHT22;3355;52.882;8.430;2022-07-10T03:14:45;14.00;99.90
6639;DHT22;3355;52.882;8.430;2022-07-10T03:17:12;14.00;99.90
6639;DHT22;3355;52.882;8.430;2022-07-10T03:19:40;14.00;99.90
6639;DHT22;3355;52.882;8.430;2022-07-10T03:22:07;14.00;99.90
6639;DHT22;3355;52.882;8.430;2022-07-10T03:24:34;13.90;99.90
6639;DHT22;3355;52.882;8.430;2022-07-10T03:27:00;14.00;99.90
6639;DHT22;3355;52.882;8.430;2022-07-10T03:29:27;14.00;99.90
6639;DHT22;3355;52.882;8.430;2022-07-10T03:31:54;13.90;99.90
6639;DHT22;3355;52.882;8.430;2022-07-10T03:34:20;14.00;99.90
6639;DHT22;3355;52.882;8.430;2022-07-10T03:36:48;14.00;99.90
6639;DHT22;3355;52.882;8.430;2022-07-10T03:39:15;14.00;99.90
6639;DHT22;3355;52.882;8.430;2022-07-10T03:41:42;14.00;99.90
6639;DHT22;3355;52.882;8.430;2022-07-10T03:44:08;14.00;99.90
6639;DHT22;3355;52.882;8.430;2022-07-10T03:46:35;14.00;99.90
6639;DHT22;3355;52.882;8.430;2022-07-10T03:49:02;14.00;99.90
6639;DHT22;3355;52.882;8.430;2022-07-10T03:51:29;14.00;99.90
6639;DHT22;3355;52.882;8.430;2022-07-10T03:53:57;14.00;99.90
6639;DHT22;3355;52.882;8.430;2022-07-10T03:56:23;14.00;99.90
6639;DHT22;3355;52.882;8.430;2022-07-10T03:59:08;14.00;99.90
6639;DHT22;3355;52.882;8.430;2022-07-10T04:01:34;14.10;99.90
6639;DHT22;3355;52.882;8.430;2022-07-10T04:04:01;14.00;99.90
6639;DHT22;3355;52.882;8.430;2022-07-10T04:06:28;14.00;99.90
6639;DHT22;3355;52.882;8.430;2022-07-10T04:08:56;14.10;99.90
6639;DHT22;3355;52.882;8.430;2022-07-10T04:11:23;14.10;99.90
6639;DHT22;3355;52.882;8.430;2022-07-10T04:13:50;14.10;99.90
6639;DHT22;3355;52.882;8.430;2022-07-10T04:16:17;14.10;99.90
6639;DHT22;3355;52.882;8.430;2022-07-10T04:18:43;14.10;99.90
6639;DHT22;3355;52.882;8.430;2022-07-10T04:21:10;14.20;99.90
6639;DHT22;3355;52.882;8.430;2022-07-10T04:23:37;14.20;99.90
6639;DHT22;3355;52.882;8.430;2022-07-10T04:26:05;14.10;99.90
6639;DHT22;3355;52.882;8.430;2022-07-10T04:28:32;14.10;99.90
6639;DHT22;3355;52.882;8.430;2022-07-10T04:30:58;14.10;99.90
6639;DHT22;3355;52.882;8.430;2022-07-10T04:33:25;14.10;99.90
6639;DHT22;3355;52.882;8.430;2022-07-10T04:35:52;14.10;99.90
6639;DHT22;3355;52.882;8.430;2022-07-10T04:38:19;14.10;99.90
6639;DHT22;3355;52.882;8.430;2022-07-10T04:40:46;14.10;99.90
6639;DHT22;3355;52.882;8.430;2022-07-10T04:43:14;14.00;99.90
6639;DHT22;3355;52.882;8.430;2022-07-10T04:45:40;14.10;99.90
6639;DHT22;3355;52.882;8.430;2022-07-10T04:48:07;14.00;99.90
6639;DHT22;3355;52.882;8.430;2022-07-10T04:50:34;14.10;99.90
6639;DHT22;3355;52.882;8.430;2022-07-10T04:53:01;14.10;99.90
6639;DHT22;3355;52.882;8.430;2022-07-10T04:55:27;14.00;99.90
6639;DHT22;3355;52.882;8.430;2022-07-10T04:57:55;14.10;99.90
6639;DHT22;3355;52.882;8.430;2022-07-10T05:00:23;14.10;99.90
6639;DHT22;3355;52.882;8.430;2022-07-10T05:02:49;14.10;99.90
6639;DHT22;3355;52.882;8.430;2022-07-10T05:05:16;14.10;99.90
6639;DHT22;3355;52.882;8.430;2022-07-10T05:07:43;14.20;99.90
6639;DHT22;3355;52.882;8.430;2022-07-10T05:10:10;14.20;99.90
6639;DHT22;3355;52.882;8.430;2022-07-10T05:12:37;14.30;99.90
6639;DHT22;3355;52.882;8.430;2022-07-10T05:15:04;14.40;99.90
6639;DHT22;3355;52.882;8.430;2022-07-10T05:17:33;14.50;99.90
6639;DHT22;3355;52.882;8.430;2022-07-10T05:19:59;14.50;99.90
6639;DHT22;3355;52.882;8.430;2022-07-10T05:22:26;14.60;99.90
6639;DHT22;3355;52.882;8.430;2022-07-10T05:24:55;14.60;99.90
6639;DHT22;3355;52.882;8.430;2022-07-10T05:27:22;14.70;99.90
6639;DHT22;3355;52.882;8.430;2022-07-10T05:29:49;14.70;99.90
6639;DHT22;3355;52.882;8.430;2022-07-10T05:32:16;14.70;99.90
6639;DHT22;3355;52.882;8.430;2022-07-10T05:34:44;14.80;99.90
6639;DHT22;3355;52.882;8.430;2022-07-10T05:37:11;14.90;99.90
6639;DHT22;3355;52.882;8.430;2022-07-10T05:39:38;15.00;99.90
6639;DHT22;3355;52.882;8.430;2022-07-10T05:42:05;15.10;99.90
6639;DHT22;3355;52.882;8.430;2022-07-10T05:44:32;15.10;99.90
6639;DHT22;3355;52.882;8.430;2022-07-10T05:46:59;15.10;99.90
6639;DHT22;3355;52.882;8.430;2022-07-10T05:49:25;15.20;99.90
6639;DHT22;3355;52.882;8.430;2022-07-10T05:51:53;15.20;99.90
6639;DHT22;3355;52.882;8.430;2022-07-10T05:54:20;15.20;99.90
6639;DHT22;3355;52.882;8.430;2022-07-10T05:56:47;15.30;99.90
6639;DHT22;3355;52.882;8.430;2022-07-10T05:59:14;15.40;99.90
6639;DHT22;3355;52.882;8.430;2022-07-10T06:01:40;15.30;99.90
6639;DHT22;3355;52.882;8.430;2022-07-10T06:04:07;15.30;99.90
6639;DHT22;3355;52.882;8.430;2022-07-10T06:06:34;15.30;99.90
6639;DHT22;3355;52.882;8.430;2022-07-10T06:09:02;15.30;99.90
6639;DHT22;3355;52.882;8.430;2022-07-10T06:11:30;15.30;99.90
6639;DHT22;3355;52.882;8.430;2022-07-10T06:13:56;15.30;99.90
6639;DHT22;3355;52.882;8.430;2022-07-10T06:16:23;15.30;99.90
6639;DHT22;3355;52.882;8.430;2022-07-10T06:18:50;15.40;99.90
6639;DHT22;3355;52.882;8.430;2022-07-10T06:21:17;15.40;99.90
6639;DHT22;3355;52.882;8.430;2022-07-10T06:23:47;15.30;99.90
6639;DHT22;3355;52.882;8.430;2022-07-10T06:26:15;15.30;99.90
6639;DHT22;3355;52.882;8.430;2022-07-10T06:28:42;15.10;99.90
6639;DHT22;3355;52.882;8.430;2022-07-10T06:31:09;15.10;99.90
6639;DHT22;3355;52.882;8.430;2022-07-10T06:33:36;15.10;99.90
6639;DHT22;3355;52.882;8.430;2022-07-10T06:36:03;15.10;99.90
6639;DHT22;3355;52.882;8.430;2022-07-10T06:38:30;15.10;99.90
6639;DHT22;3355;52.882;8.430;2022-07-10T06:40:58;15.10;99.90
6639;DHT22;3355;52.882;8.430;2022-07-10T06:43:26;15.20;99.90
6639;DHT22;3355;52.882;8.430;2022-07-10T06:45:53;15.30;99.90
6639;DHT22;3355;52.882;8.430;2022-07-10T06:48:20;15.10;99.90
6639;DHT22;3355;52.882;8.430;2022-07-10T06:50:46;15.20;99.90
6639;DHT22;3355;52.882;8.430;2022-07-10T06:53:13;15.30;99.90
6639;DHT22;3355;52.882;8.430;2022-07-10T06:55:40;15.40;99.90
6639;DHT22;3355;52.882;8.430;2022-07-10T06:58:08;15.50;99.90
6639;DHT22;3355;52.882;8.430;2022-07-10T07:00:36;15.60;99.90
6639;DHT22;3355;52.882;8.430;2022-07-10T07:03:03;15.70;99.90
6639;DHT22;3355;52.882;8.430;2022-07-10T07:05:29;15.80;99.90
6639;DHT22;3355;52.882;8.430;2022-07-10T07:07:56;15.90;99.90
6639;DHT22;3355;52.882;8.430;2022-07-10T07:10:23;16.00;99.90
6639;DHT22;3355;52.882;8.430;2022-07-10T07:12:50;16.10;99.90
6639;DHT22;3355;52.882;8.430;2022-07-10T07:15:17;16.10;99.90
6639;DHT22;3355;52.882;8.430;2022-07-10T07:17:47;16.10;99.90
6639;DHT22;3355;52.882;8.430;2022-07-10T07:20:23;16.10;99.90
6639;DHT22;3355;52.882;8.430;2022-07-10T07:23:08;16.10;99.90
6639;DHT22;3355;52.882;8.430;2022-07-10T07:25:37;16.00;99.90
6639;DHT22;3355;52.882;8.430;2022-07-10T07:28:07;15.90;99.90
6639;DHT22;3355;52.882;8.430;2022-07-10T07:30:34;15.90;99.90
6639;DHT22;3355;52.882;8.430;2022-07-10T07:33:02;16.00;99.90
6639;DHT22;3355;52.882;8.430;2022-07-10T07:35:29;15.90;99.90
6639;DHT22;3355;52.882;8.430;2022-07-10T07:37:56;16.10;99.90
6639;DHT22;3355;52.882;8.430;2022-07-10T07:40:23;16.20;99.90
6639;DHT22;3355;52.882;8.430;2022-07-10T07:42:50;16.20;99.90
6639;DHT22;3355;52.882;8.430;2022-07-10T07:45:17;16.20;99.90
6639;DHT22;3355;52.882;8.430;2022-07-10T07:47:45;16.20;99.90
6639;DHT22;3355;52.882;8.430;2022-07-10T07:50:15;16.30;99.90
6639;DHT22;3355;52.882;8.430;2022-07-10T07:52:41;16.80;99.90
6639;DHT22;3355;52.882;8.430;2022-07-10T07:55:09;17.00;99.90
6639;DHT22;3355;52.882;8.430;2022-07-10T07:57:36;17.10;99.90
6639;DHT22;3355;52.882;8.430;2022-07-10T08:00:05;17.00;99.90
6639;DHT22;3355;52.882;8.430;2022-07-10T08:02:32;17.10;99.90
6639;DHT22;3355;52.882;8.430;2022-07-10T08:04:59;17.00;99.90
6639;DHT22;3355;52.882;8.430;2022-07-10T08:07:34;17.10;99.90
6639;DHT22;3355;52.882;8.430;2022-07-10T08:10:01;17.00;99.90
6639;DHT22;3355;52.882;8.430;2022-07-10T08:12:29;16.90;99.90
6639;DHT22;3355;52.882;8.430;2022-07-10T08:14:55;17.00;99.90
6639;DHT22;3355;52.882;8.430;2022-07-10T08:17:23;17.00;99.90
6639;DHT22;3355;52.882;8.430;2022-07-10T08:19:50;16.90;99.90
6639;DHT22;3355;52.882;8.430;2022-07-10T08:22:17;16.90;99.90
6639;DHT22;3355;52.882;8.430;2022-07-10T08:24:45;16.80;99.90
6639;DHT22;3355;52.882;8.430;2022-07-10T08:27:12;16.80;99.90
6639;DHT22;3355;52.882;8.430;2022-07-10T08:29:39;16.90;99.90
6639;DHT22;3355;52.882;8.430;2022-07-10T08:32:06;16.90;99.90
6639;DHT22;3355;52.882;8.430;2022-07-10T08:34:35;16.90;99.90
6639;DHT22;3355;52.882;8.430;2022-07-10T08:37:01;16.90;99.90
6639;DHT22;3355;52.882;8.430;2022-07-10T08:39:28;17.10;99.90
6639;DHT22;3355;52.882;8.430;2022-07-10T08:41:57;17.20;99.90
6639;DHT22;3355;52.882;8.430;2022-07-10T08:44:23;17.40;99.90
6639;DHT22;3355;52.882;8.430;2022-07-10T08:46:50;17.50;99.90
6639;DHT22;3355;52.882;8.430;2022-07-10T08:49:17;18.10;99.90
6639;DHT22;3355;52.882;8.430;2022-07-10T08:51:49;18.70;99.90
6639;DHT22;3355;52.882;8.430;2022-07-10T08:54:19;18.90;99.90
6639;DHT22;3355;52.882;8.430;2022-07-10T08:56:47;18.80;99.90
6639;DHT22;3355;52.882;8.430;2022-07-10T08:59:15;19.10;99.90
6639;DHT22;3355;52.882;8.430;2022-07-10T09:01:43;19.20;99.90
6639;DHT22;3355;52.882;8.430;2022-07-10T09:04:16;19.00;99.90
6639;DHT22;3355;52.882;8.430;2022-07-10T09:06:43;18.80;99.90
6639;DHT22;3355;52.882;8.430;2022-07-10T09:09:10;18.70;99.90
6639;DHT22;3355;52.882;8.430;2022-07-10T09:11:38;18.60;99.90
6639;DHT22;3355;52.882;8.430;2022-07-10T09:14:08;18.30;99.90
6639;DHT22;3355;52.882;8.430;2022-07-10T09:16:38;18.40;99.90
6639;DHT22;3355;52.882;8.430;2022-07-10T09:19:16;18.40;99.90
6639;DHT22;3355;52.882;8.430;2022-07-10T09:21:43;18.20;99.90
6639;DHT22;3355;52.882;8.430;2022-07-10T09:24:10;18.10;99.90
6639;DHT22;3355;52.882;8.430;2022-07-10T09:26:38;18.10;99.90
6639;DHT22;3355;52.882;8.430;2022-07-10T09:29:06;18.00;99.90
6639;DHT22;3355;52.882;8.430;2022-07-10T09:34:40;18.10;99.90
6639;DHT22;3355;52.882;8.430;2022-07-10T09:37:24;18.10;99.90
6639;DHT22;3355;52.882;8.430;2022-07-10T09:39:57;18.10;99.90
6639;DHT22;3355;52.882;8.430;2022-07-10T09:42:28;18.30;99.90
6639;DHT22;3355;52.882;8.430;2022-07-10T09:45:15;19.10;99.90
6639;DHT22;3355;52.882;8.430;2022-07-10T09:47:43;19.40;99.90
6639;DHT22;3355;52.882;8.430;2022-07-10T09:50:23;19.40;99.90
6639;DHT22;3355;52.882;8.430;2022-07-10T09:52:50;19.30;99.90
6639;DHT22;3355;52.882;8.430;2022-07-10T09:55:20;19.20;99.90
6639;DHT22;3355;52.882;8.430;2022-07-10T09:57:54;19.10;99.90
6639;DHT22;3355;52.882;8.430;2022-07-10T10:00:25;18.90;99.90
6639;DHT22;3355;52.882;8.430;2022-07-10T10:02:57;18.70;99.90
6639;DHT22;3355;52.882;8.430;2022-07-10T10:05:32;18.40;99.90
6639;DHT22;3355;52.882;8.430;2022-07-10T10:08:01;18.30;99.90
6639;DHT22;3355;52.882;8.430;2022-07-10T10:10:32;18.20;99.90
6639;DHT22;3355;52.882;8.430;2022-07-10T10:13:02;18.20;99.90
6639;DHT22;3355;52.882;8.430;2022-07-10T10:15:30;18.20;99.90
6639;DHT22;3355;52.882;8.430;2022-07-10T10:17:58;18.20;99.90
6639;DHT22;3355;52.882;8.430;2022-07-10T10:20:26;18.20;99.90
6639;DHT22;3355;52.882;8.430;2022-07-10T10:23:09;18.20;99.90
6639;DHT22;3355;52.882;8.430;2022-07-10T10:25:38;18.30;99.90
6639;DHT22;3355;52.882;8.430;2022-07-10T10:28:08;18.20;99.90
6639;DHT22;3355;52.882;8.430;2022-07-10T10:30:37;18.20;99.90
6639;DHT22;3355;52.882;8.430;2022-07-10T10:35:53;18.20;99.90
6639;DHT22;3355;52.882;8.430;2022-07-10T10:38:20;18.20;99.90
6639;DHT22;3355;52.882;8.430;2022-07-10T10:40:47;18.30;99.90
6639;DHT22;3355;52.882;8.430;2022-07-10T10:43:16;18.50;99.90
6639;DHT22;3355;52.882;8.430;2022-07-10T10:45:43;19.00;99.90
6639;DHT22;3355;52.882;8.430;2022-07-10T10:48:12;19.40;99.90
6639;DHT22;3355;52.882;8.430;2022-07-10T10:50:40;19.50;99.90
6639;DHT22;3355;52.882;8.430;2022-07-10T10:53:17;19.50;99.90
6639;DHT22;3355;52.882;8.430;2022-07-10T10:56:21;19.60;99.90
6639;DHT22;3355;52.882;8.430;2022-07-10T10:58:49;19.30;99.90
6639;DHT22;3355;52.882;8.430;2022-07-10T11:01:29;19.20;99.90
6639;DHT22;3355;52.882;8.430;2022-07-10T11:04:15;19.20;99.90
6639;DHT22;3355;52.882;8.430;2022-07-10T11:06:44;19.00;99.90
6639;DHT22;3355;52.882;8.430;2022-07-10T11:09:28;19.00;99.90
6639;DHT22;3355;52.882;8.430;2022-07-10T11:12:03;18.90;99.90
6639;DHT22;3355;52.882;8.430;2022-07-10T11:14:31;18.90;99.90
6639;DHT22;3355;52.882;8.430;2022-07-10T11:16:59;18.90;99.90
6639;DHT22;3355;52.882;8.430;2022-07-10T11:19:28;18.80;99.90
6639;DHT22;3355;52.882;8.430;2022-07-10T11:22:24;18.70;99.90
6639;DHT22;3355;52.882;8.430;2022-07-10T11:25:19;18.80;99.90
6639;DHT22;3355;52.882;8.430;2022-07-10T11:28:05;18.90;99.90
6639;DHT22;3355;52.882;8.430;2022-07-10T11:30:44;18.80;99.90
6639;DHT22;3355;52.882;8.430;2022-07-10T11:33:11;18.80;99.90
6639;DHT22;3355;52.882;8.430;2022-07-10T11:35:38;18.90;99.90
6639;DHT22;3355;52.882;8.430;2022-07-10T11:38:05;19.10;99.90
6639;DHT22;3355;52.882;8.430;2022-07-10T11:40:36;19.00;99.90
6639;DHT22;3355;52.882;8.430;2022-07-10T11:43:04;19.10;99.90
6639;DHT22;3355;52.882;8.430;2022-07-10T11:45:33;19.10;99.90
6639;DHT22;3355;52.882;8.430;2022-07-10T11:48:03;19.10;99.90
6639;DHT22;3355;52.882;8.430;2022-07-10T11:50:35;18.80;99.90
6639;DHT22;3355;52.882;8.430;2022-07-10T11:53:03;18.70;99.90
6639;DHT22;3355;52.882;8.430;2022-07-10T11:55:30;18.80;99.90
6639;DHT22;3355;52.882;8.430;2022-07-10T11:58:12;18.80;99.90
6639;DHT22;3355;52.882;8.430;2022-07-10T12:00:39;18.80;99.90
6639;DHT22;3355;52.882;8.430;2022-07-10T12:03:18;18.90;99.90
6639;DHT22;3355;52.882;8.430;2022-07-10T12:05:45;18.70;99.90
6639;DHT22;3355;52.882;8.430;2022-07-10T12:08:12;18.70;99.90
6639;DHT22;3355;52.882;8.430;2022-07-10T12:10:40;18.70;99.90
6639;DHT22;3355;52.882;8.430;2022-07-10T12:13:10;18.60;99.90
6639;DHT22;3355;52.882;8.430;2022-07-10T12:15:39;18.40;99.90
6639;DHT22;3355;52.882;8.430;2022-07-10T12:18:07;18.50;99.90
6639;DHT22;3355;52.882;8.430;2022-07-10T12:20:34;18.40;99.90
6639;DHT22;3355;52.882;8.430;2022-07-10T12:23:03;18.50;99.90
6639;DHT22;3355;52.882;8.430;2022-07-10T12:25:30;18.50;99.90
6639;DHT22;3355;52.882;8.430;2022-07-10T12:27:57;18.50;99.90
6639;DHT22;3355;52.882;8.430;2022-07-10T12:30:38;18.50;99.90
6639;DHT22;3355;52.882;8.430;2022-07-10T12:33:10;18.50;99.90
6639;DHT22;3355;52.882;8.430;2022-07-10T12:35:49;18.40;99.90
6639;DHT22;3355;52.882;8.430;2022-07-10T12:38:17;18.30;99.90
6639;DHT22;3355;52.882;8.430;2022-07-10T12:40:45;18.30;99.90
6639;DHT22;3355;52.882;8.430;2022-07-10T12:43:11;18.40;99.90
6639;DHT22;3355;52.882;8.430;2022-07-10T12:45:40;18.50;99.90
6639;DHT22;3355;52.882;8.430;2022-07-10T12:48:07;18.60;99.90
6639;DHT22;3355;52.882;8.430;2022-07-10T12:50:47;18.60;99.90
6639;DHT22;3355;52.882;8.430;2022-07-10T12:53:14;18.60;99.90
6639;DHT22;3355;52.882;8.430;2022-07-10T12:55:41;18.70;99.90
6639;DHT22;3355;52.882;8.430;2022-07-10T12:58:09;18.60;99.90
6639;DHT22;3355;52.882;8.430;2022-07-10T13:00:44;18.60;99.90
6639;DHT22;3355;52.882;8.430;2022-07-10T13:03:17;18.50;99.90
6639;DHT22;3355;52.882;8.430;2022-07-10T13:05:45;18.50;99.90
6639;DHT22;3355;52.882;8.430;2022-07-10T13:08:14;18.70;99.90
6639;DHT22;3355;52.882;8.430;2022-07-10T13:10:44;18.60;99.90
6639;DHT22;3355;52.882;8.430;2022-07-10T13:13:11;18.50;99.90
6639;DHT22;3355;52.882;8.430;2022-07-10T13:15:38;18.80;99.90
6639;DHT22;3355;52.882;8.430;2022-07-10T13:18:14;19.00;99.90
6639;DHT22;3355;52.882;8.430;2022-07-10T13:20:43;19.00;99.90
6639;DHT22;3355;52.882;8.430;2022-07-10T13:23:09;19.20;99.90
6639;DHT22;3355;52.882;8.430;2022-07-10T13:25:36;19.30;99.90
6639;DHT22;3355;52.882;8.430;2022-07-10T13:28:04;19.40;99.90
6639;DHT22;3355;52.882;8.430;2022-07-10T13:30:31;19.60;99.90
6639;DHT22;3355;52.882;8.430;2022-07-10T13:32:58;19.70;99.90
6639;DHT22;3355;52.882;8.430;2022-07-10T13:35:27;19.80;99.90
6639;DHT22;3355;52.882;8.430;2022-07-10T13:37:54;19.80;99.90
6639;DHT22;3355;52.882;8.430;2022-07-10T13:40:21;19.70;99.90
6639;DHT22;3355;52.882;8.430;2022-07-10T13:42:47;19.60;99.90
6639;DHT22;3355;52.882;8.430;2022-07-10T13:45:14;19.50;99.90
6639;DHT22;3355;52.882;8.430;2022-07-10T13:47:41;19.30;99.90
6639;DHT22;3355;52.882;8.430;2022-07-10T13:50:08;19.30;99.90
6639;DHT22;3355;52.882;8.430;2022-07-10T13:52:36;19.20;99.90
6639;DHT22;3355;52.882;8.430;2022-07-10T13:55:03;19.20;99.90
6639;DHT22;3355;52.882;8.430;2022-07-10T13:57:31;19.20;99.90
6639;DHT22;3355;52.882;8.430;2022-07-10T13:59:58;19.30;99.90
6639;DHT22;3355;52.882;8.430;2022-07-10T14:02:25;19.40;99.90
6639;DHT22;3355;52.882;8.430;2022-07-10T14:04:52;19.40;99.90
6639;DHT22;3355;52.882;8.430;2022-07-10T14:07:19;19.30;99.90
6639;DHT22;3355;52.882;8.430;2022-07-10T14:09:47;19.40;99.90
6639;DHT22;3355;52.882;8.430;2022-07-10T14:12:13;19.50;99.90
6639;DHT22;3355;52.882;8.430;2022-07-10T14:14:40;19.60;99.90
6639;DHT22;3355;52.882;8.430;2022-07-10T14:17:07;19.90;99.90
6639;DHT22;3355;52.882;8.430;2022-07-10T14:19:34;20.00;99.90
6639;DHT22;3355;52.882;8.430;2022-07-10T14:22:00;20.00;99.90
6639;DHT22;3355;52.882;8.430;2022-07-10T14:24:27;20.00;99.90
6639;DHT22;3355;52.882;8.430;2022-07-10T14:26:56;20.00;99.90
6639;DHT22;3355;52.882;8.430;2022-07-10T14:29:23;20.10;99.90
6639;DHT22;3355;52.882;8.430;2022-07-10T14:31:49;20.00;99.90
6639;DHT22;3355;52.882;8.430;2022-07-10T14:34:17;19.90;99.90
6639;DHT22;3355;52.882;8.430;2022-07-10T14:36:44;19.80;99.90
6639;DHT22;3355;52.882;8.430;2022-07-10T14:39:11;19.70;99.90
6639;DHT22;3355;52.882;8.430;2022-07-10T14:41:38;19.60;99.90
6639;DHT22;3355;52.882;8.430;2022-07-10T14:44:06;19.60;99.90
6639;DHT22;3355;52.882;8.430;2022-07-10T14:46:33;19.70;99.90
6639;DHT22;3355;52.882;8.430;2022-07-10T14:49:01;19.60;99.90
6639;DHT22;3355;52.882;8.430;2022-07-10T14:51:27;19.50;99.90
6639;DHT22;3355;52.882;8.430;2022-07-10T14:53:55;19.50;99.90
6639;DHT22;3355;52.882;8.430;2022-07-10T14:56:22;19.50;99.90
6639;DHT22;3355;52.882;8.430;2022-07-10T14:58:49;19.70;99.90
6639;DHT22;3355;52.882;8.430;2022-07-10T15:01:18;19.60;99.90
6639;DHT22;3355;52.882;8.430;2022-07-10T15:03:44;19.70;99.90
6639;DHT22;3355;52.882;8.430;2022-07-10T15:06:11;19.70;99.90
6639;DHT22;3355;52.882;8.430;2022-07-10T15:08:38;19.60;99.90
6639;DHT22;3355;52.882;8.430;2022-07-10T15:11:05;19.70;99.90
6639;DHT22;3355;52.882;8.430;2022-07-10T15:13:32;19.80;99.90
6639;DHT22;3355;52.882;8.430;2022-07-10T15:15:59;19.70;99.90
6639;DHT22;3355;52.882;8.430;2022-07-10T15:18:27;19.70;99.90
6639;DHT22;3355;52.882;8.430;2022-07-10T15:20:54;19.70;99.90
6639;DHT22;3355;52.882;8.430;2022-07-10T15:23:24;19.70;99.90
6639;DHT22;3355;52.882;8.430;2022-07-10T15:25:53;19.60;99.90
6639;DHT22;3355;52.882;8.430;2022-07-10T15:28:19;19.50;99.90
6639;DHT22;3355;52.882;8.430;2022-07-10T15:30:46;19.60;99.90
6639;DHT22;3355;52.882;8.430;2022-07-10T15:33:13;19.40;99.90
6639;DHT22;3355;52.882;8.430;2022-07-10T15:35:41;19.20;99.90
6639;DHT22;3355;52.882;8.430;2022-07-10T15:38:08;19.20;99.90
6639;DHT22;3355;52.882;8.430;2022-07-10T15:40:34;19.40;99.90
6639;DHT22;3355;52.882;8.430;2022-07-10T15:43:01;19.40;99.90
6639;DHT22;3355;52.882;8.430;2022-07-10T15:45:28;19.50;99.90
6639;DHT22;3355;52.882;8.430;2022-07-10T15:47:55;19.60;99.90
6639;DHT22;3355;52.882;8.430;2022-07-10T15:50:22;19.60;99.90
6639;DHT22;3355;52.882;8.430;2022-07-10T15:52:50;19.70;99.90
6639;DHT22;3355;52.882;8.430;2022-07-10T15:55:17;19.60;99.90
6639;DHT22;3355;52.882;8.430;2022-07-10T15:57:44;19.60;99.90
6639;DHT22;3355;52.882;8.430;2022-07-10T16:00:11;19.60;99.90
6639;DHT22;3355;52.882;8.430;2022-07-10T16:02:38;19.50;99.90
6639;DHT22;3355;52.882;8.430;2022-07-10T16:05:07;19.60;99.90
6639;DHT22;3355;52.882;8.430;2022-07-10T16:07:33;19.50;99.90
6639;DHT22;3355;52.882;8.430;2022-07-10T16:10:02;19.60;99.90
6639;DHT22;3355;52.882;8.430;2022-07-10T16:12:29;19.50;99.90
6639;DHT22;3355;52.882;8.430;2022-07-10T16:14:55;19.50;99.90